Time;durP1;ratioP1;P1;durP2;ratioP2;P2;SDS_P1;SDS_P2;PMS_P1;PMS_P2;Temp;Humidity;BMP_temperature;BMP_pressure;BME280_temperature;BME280_humidity;BME280_pressure;Samples;Min_cycle;Max_cycle;Signal;HPM_P1;HPM_P2
2022/01/04 00:02:08;;;;;;;13.93;8.35;;;10.30;99.90;;;;;;5019388;28;20017;-87
2022/01/04 00:04:34;;;;;;;13.45;8.57;;;10.30;99.90;;;;;;4986968;28;20044;-88
2022/01/04 00:07:00;;;;;;;12.02;7.70;;;10.30;99.90;;;;;;5019195;28;20026;-87
2022/01/04 00:09:25;;;;;;;13.30;8.30;;;10.30;99.90;;;;;;5002992;28;20029;-87
2022/01/04 00:14:18;;;;;;;11.38;8.65;;;10.30;99.90;;;;;;5019231;28;20033;-88
2022/01/04 00:16:44;;;;;;;15.68;8.18;;;10.30;99.90;;;;;;5018952;28;20127;-87
2022/01/04 00:19:10;;;;;;;14.80;7.43;;;10.30;99.90;;;;;;5019127;28;20025;-87
2022/01/04 00:21:36;;;;;;;11.90;7.65;;;10.30;99.90;;;;;;5018766;28;20033;-87
2022/01/04 00:24:03;;;;;;;16.88;8.07;;;10.20;99.90;;;;;;5003743;28;20116;-87
2022/01/04 00:26:29;;;;;;;14.70;7.63;;;10.20;99.90;;;;;;5018877;28;20088;-87
2022/01/04 00:28:55;;;;;;;16.08;8.32;;;10.30;99.90;;;;;;4987118;28;20454;-87
2022/01/04 00:31:21;;;;;;;10.85;7.50;;;10.20;99.90;;;;;;5024114;28;20071;-87
2022/01/04 00:33:47;;;;;;;13.38;7.32;;;10.20;99.90;;;;;;5042038;28;20075;-87
2022/01/04 00:36:13;;;;;;;16.95;8.70;;;10.20;99.90;;;;;;5024274;28;20072;-88
2022/01/04 00:38:38;;;;;;;16.25;8.10;;;10.20;99.90;;;;;;4987037;28;20029;-87
2022/01/04 00:41:04;;;;;;;17.58;8.52;;;10.20;99.90;;;;;;5018993;28;20025;-87
2022/01/04 00:43:30;;;;;;;17.65;8.10;;;10.20;99.90;;;;;;4985844;28;20398;-86
2022/01/04 00:45:56;;;;;;;17.95;8.85;;;10.20;99.90;;;;;;4985321;28;20096;-87
2022/01/04 00:50:47;;;;;;;14.98;8.88;;;10.20;99.90;;;;;;5036328;28;20406;-88
2022/01/04 00:53:15;;;;;;;13.95;8.40;;;10.20;99.90;;;;;;5036466;28;20060;-87
2022/01/04 00:55:41;;;;;;;15.32;8.00;;;10.20;99.90;;;;;;5019248;28;20029;-88
2022/01/04 00:58:07;;;;;;;16.83;9.15;;;10.20;99.90;;;;;;5019583;28;20060;-87
2022/01/04 01:00:33;;;;;;;14.80;8.38;;;10.20;99.90;;;;;;5034207;28;20033;-86
2022/01/04 01:02:59;;;;;;;15.70;9.13;;;10.20;99.90;;;;;;5030073;28;20113;-87
2022/01/04 01:05:26;;;;;;;14.57;8.32;;;10.20;99.90;;;;;;5020047;28;20022;-87
2022/01/04 01:07:55;;;;;;;13.73;8.65;;;10.20;99.90;;;;;;5036115;28;20025;-87
2022/01/04 01:13:03;;;;;;;14.02;8.13;;;10.10;99.90;;;;;;5035748;28;20033;-86
2022/01/04 01:15:29;;;;;;;15.52;8.82;;;10.20;99.90;;;;;;5018384;28;20034;-87
2022/01/04 01:17:55;;;;;;;12.90;8.82;;;10.20;99.90;;;;;;5017691;28;20416;-87
2022/01/04 01:20:21;;;;;;;13.70;8.77;;;10.20;99.90;;;;;;4985389;28;20025;-87
2022/01/04 01:22:47;;;;;;;17.15;9.88;;;10.10;99.90;;;;;;5018082;28;20117;-87
2022/01/04 01:25:13;;;;;;;15.27;9.02;;;10.20;99.90;;;;;;5017763;28;20068;-87
2022/01/04 01:27:40;;;;;;;13.88;8.52;;;10.20;99.90;;;;;;5001322;28;20261;-87
2022/01/04 01:30:10;;;;;;;17.58;9.25;;;10.20;99.90;;;;;;5035272;28;20033;-89
2022/01/04 01:32:35;;;;;;;12.52;8.63;;;10.20;99.90;;;;;;5018018;28;20025;-87
2022/01/04 01:35:01;;;;;;;15.20;9.55;;;10.20;99.90;;;;;;5018016;28;20025;-87
2022/01/04 01:37:27;;;;;;;15.07;9.23;;;10.20;99.90;;;;;;5001021;28;20389;-88
2022/01/04 01:39:54;;;;;;;11.52;8.60;;;10.20;99.90;;;;;;5004392;28;20041;-88
2022/01/04 01:42:19;;;;;;;16.25;8.55;;;10.20;99.90;;;;;;5018902;28;20025;-89
2022/01/04 01:44:45;;;;;;;18.83;9.77;;;10.20;99.90;;;;;;5017206;28;20029;-88
2022/01/04 01:47:11;;;;;;;15.75;9.70;;;10.20;99.90;;;;;;5017576;28;20029;-87
2022/01/04 01:49:37;;;;;;;12.50;9.52;;;10.10;99.90;;;;;;5001287;28;20025;-88
2022/01/04 01:52:03;;;;;;;16.35;10.70;;;10.20;99.90;;;;;;5017662;28;20064;-88
2022/01/04 01:54:29;;;;;;;16.08;10.30;;;10.20;99.90;;;;;;5017526;28;20108;-88
2022/01/04 01:56:57;;;;;;;16.65;10.88;;;10.10;99.90;;;;;;5000826;28;20060;-88
2022/01/04 01:59:23;;;;;;;15.18;11.23;;;10.10;99.90;;;;;;5034725;28;20496;-90
2022/01/04 02:01:49;;;;;;;14.75;10.07;;;10.10;99.90;;;;;;5017796;28;20045;-88
2022/01/04 02:04:15;;;;;;;14.20;10.02;;;10.10;99.90;;;;;;5000978;28;20029;-88
2022/01/04 02:06:40;;;;;;;16.00;10.57;;;10.10;99.90;;;;;;5000852;28;20034;-88
2022/01/04 02:09:06;;;;;;;17.90;11.52;;;10.10;99.90;;;;;;5017283;28;20029;-88
2022/01/04 02:11:32;;;;;;;18.45;10.73;;;10.10;99.90;;;;;;5002190;28;20029;-88
2022/01/04 02:14:01;;;;;;;15.18;11.05;;;10.10;99.90;;;;;;5035227;28;20049;-89
2022/01/04 02:16:28;;;;;;;16.88;11.32;;;10.00;99.90;;;;;;5001095;28;20054;-88
2022/01/04 02:19:06;;;;;;;16.08;10.88;;;10.10;99.90;;;;;;5000949;28;20040;-88
2022/01/04 02:21:33;;;;;;;15.38;10.57;;;10.10;99.90;;;;;;5017275;28;20026;-88
2022/01/04 02:23:59;;;;;;;16.65;10.80;;;10.10;99.90;;;;;;5000740;28;20120;-88
2022/01/04 02:26:25;;;;;;;14.50;10.60;;;10.10;99.90;;;;;;5017021;28;20030;-88
2022/01/04 02:28:51;;;;;;;15.85;10.55;;;10.10;99.90;;;;;;5001215;28;20030;-88
2022/01/04 02:31:17;;;;;;;14.32;9.48;;;10.00;99.90;;;;;;5017285;28;20029;-85
2022/01/04 02:33:43;;;;;;;13.23;9.88;;;10.00;99.90;;;;;;5017194;28;20120;-88
2022/01/04 02:36:09;;;;;;;19.70;10.02;;;10.00;99.90;;;;;;5000666;28;20565;-88
2022/01/04 02:38:37;;;;;;;17.17;9.95;;;10.00;99.90;;;;;;5017192;28;20021;-88
2022/01/04 02:41:03;;;;;;;14.90;10.23;;;10.00;99.90;;;;;;4984853;28;20033;-88
2022/01/04 02:43:28;;;;;;;15.45;10.40;;;10.00;99.90;;;;;;5000776;28;20608;-90
2022/01/04 02:45:57;;;;;;;16.50;9.43;;;9.90;99.90;;;;;;5001008;28;20065;-88
2022/01/04 02:48:23;;;;;;;14.30;9.63;;;9.90;99.90;;;;;;5001658;28;20128;-87
2022/01/04 02:50:50;;;;;;;15.35;9.65;;;9.90;99.90;;;;;;5034807;28;20053;-87
2022/01/04 02:53:16;;;;;;;13.77;9.05;;;9.90;99.90;;;;;;4984795;28;20029;-88
2022/01/04 02:55:42;;;;;;;11.90;9.23;;;9.90;99.90;;;;;;5016911;28;20079;-88
2022/01/04 02:58:08;;;;;;;15.43;8.77;;;9.90;99.90;;;;;;5001244;28;20026;-88
2022/01/04 03:00:34;;;;;;;10.52;8.13;;;9.90;99.90;;;;;;5017549;28;20087;-88
2022/01/04 03:03:00;;;;;;;14.80;9.23;;;9.90;99.90;;;;;;5017326;28;20073;-88
2022/01/04 03:05:26;;;;;;;14.98;9.73;;;9.80;99.90;;;;;;5021328;28;20071;-88
2022/01/04 03:07:52;;;;;;;12.95;9.00;;;9.90;99.90;;;;;;5023672;28;20025;-88
2022/01/04 03:10:18;;;;;;;14.18;8.57;;;9.80;99.90;;;;;;5024142;28;20034;-88
2022/01/04 03:12:44;;;;;;;12.48;8.23;;;9.80;99.90;;;;;;5004915;28;20025;-88
2022/01/04 03:15:14;;;;;;;12.63;8.40;;;9.80;99.90;;;;;;5005047;28;20026;-88
2022/01/04 03:17:41;;;;;;;12.32;8.27;;;9.80;99.90;;;;;;5004317;28;20025;-88
2022/01/04 03:20:11;;;;;;;12.00;8.52;;;9.80;99.90;;;;;;5004800;28;20104;-88
2022/01/04 03:22:36;;;;;;;14.23;9.25;;;9.80;99.90;;;;;;5038310;28;20547;-88
2022/01/04 03:25:03;;;;;;;15.70;9.43;;;9.80;99.90;;;;;;5005447;28;20029;-88
2022/01/04 03:27:29;;;;;;;13.57;9.00;;;9.80;99.90;;;;;;5020663;28;20092;-88
2022/01/04 03:29:55;;;;;;;12.57;8.82;;;9.80;99.90;;;;;;5004749;28;20095;-88
2022/01/04 03:32:20;;;;;;;10.70;8.05;;;9.80;99.90;;;;;;4988551;28;20033;-88
2022/01/04 03:34:49;;;;;;;14.45;9.13;;;9.80;99.90;;;;;;5004890;28;20034;-88
2022/01/04 03:37:15;;;;;;;14.65;9.35;;;9.80;99.90;;;;;;5038457;28;20025;-88
2022/01/04 03:39:40;;;;;;;10.68;8.55;;;9.80;99.90;;;;;;5004128;28;20140;-89
2022/01/04 03:42:06;;;;;;;18.13;10.35;;;9.80;99.90;;;;;;4989240;28;20029;-88
2022/01/04 03:44:32;;;;;;;14.13;9.73;;;9.80;99.90;;;;;;5006035;28;20030;-88
2022/01/04 03:46:58;;;;;;;14.00;9.77;;;9.80;99.90;;;;;;4984875;28;20390;-87
2022/01/04 03:49:24;;;;;;;13.02;10.10;;;9.70;99.90;;;;;;5000965;28;20038;-87
2022/01/04 03:51:50;;;;;;;14.73;10.32;;;9.80;99.90;;;;;;5000920;28;20121;-87
2022/01/04 03:54:16;;;;;;;14.73;9.40;;;9.70;99.90;;;;;;4985345;28;20121;-87
2022/01/04 03:56:42;;;;;;;13.68;9.93;;;9.70;99.90;;;;;;5012138;28;20093;-87
2022/01/04 03:59:08;;;;;;;14.80;9.98;;;9.70;99.90;;;;;;4984554;28;20022;-87
2022/01/04 04:01:33;;;;;;;15.48;10.25;;;9.70;99.90;;;;;;5005558;28;20061;-87
2022/01/04 04:03:59;;;;;;;17.15;11.10;;;9.70;99.90;;;;;;5000688;28;20427;-88
2022/01/04 04:06:25;;;;;;;15.68;9.85;;;9.70;99.90;;;;;;4988040;28;20049;-87
2022/01/04 04:08:51;;;;;;;16.23;11.30;;;9.70;99.90;;;;;;4984920;28;20030;-88
2022/01/04 04:11:17;;;;;;;15.07;10.18;;;9.60;99.90;;;;;;4985158;28;20030;-87
2022/01/04 04:13:42;;;;;;;12.80;10.25;;;9.60;99.90;;;;;;5000892;28;20030;-87
2022/01/04 04:16:08;;;;;;;16.13;11.07;;;9.60;99.90;;;;;;5001016;28;20053;-87
2022/01/04 04:18:34;;;;;;;18.63;10.93;;;9.60;99.90;;;;;;4999882;28;20085;-88
2022/01/04 04:21:00;;;;;;;13.40;10.35;;;9.60;99.90;;;;;;5000225;28;20088;-87
2022/01/04 04:23:26;;;;;;;16.35;11.23;;;9.60;99.90;;;;;;5018861;28;20034;-87
2022/01/04 04:25:51;;;;;;;14.68;10.70;;;9.60;99.90;;;;;;5001650;28;20040;-87
2022/01/04 04:28:17;;;;;;;15.63;11.13;;;9.60;99.90;;;;;;5001125;28;20129;-88
2022/01/04 04:30:43;;;;;;;16.40;11.13;;;9.60;99.90;;;;;;4984928;28;20033;-87
2022/01/04 04:33:11;;;;;;;14.40;11.50;;;9.60;99.90;;;;;;4984804;28;20079;-88
2022/01/04 04:35:37;;;;;;;16.52;11.38;;;9.50;99.90;;;;;;4984531;28;20053;-87
2022/01/04 04:38:03;;;;;;;14.65;10.35;;;9.60;99.90;;;;;;4984092;28;20026;-87
2022/01/04 04:40:29;;;;;;;15.15;10.98;;;9.60;99.90;;;;;;5001069;28;20026;-87
2022/01/04 04:42:55;;;;;;;18.75;11.82;;;9.60;99.90;;;;;;5002660;28;20026;-87
2022/01/04 04:45:21;;;;;;;15.80;10.30;;;9.50;99.90;;;;;;5010757;28;20343;-87
2022/01/04 04:47:47;;;;;;;18.15;11.45;;;9.60;99.90;;;;;;5006181;28;20084;-87
2022/01/04 04:50:13;;;;;;;16.75;11.85;;;9.60;99.90;;;;;;5006363;28;20545;-87
2022/01/04 04:52:38;;;;;;;15.50;10.75;;;9.50;99.90;;;;;;5023367;28;20104;-87
2022/01/04 04:55:05;;;;;;;17.20;10.85;;;9.50;99.90;;;;;;5022778;28;20379;-87
2022/01/04 04:57:31;;;;;;;16.80;11.60;;;9.50;99.90;;;;;;5023639;28;20033;-87
2022/01/04 04:59:56;;;;;;;16.70;11.75;;;9.50;99.90;;;;;;5006404;28;20049;-87
2022/01/04 05:02:22;;;;;;;17.08;11.18;;;9.50;99.90;;;;;;5043261;28;20032;-87
2022/01/04 05:04:48;;;;;;;17.17;11.55;;;9.50;99.90;;;;;;5020345;28;20041;-88
2022/01/04 05:07:14;;;;;;;16.10;11.45;;;9.50;99.90;;;;;;5022982;28;20065;-88
2022/01/04 05:09:40;;;;;;;19.02;12.20;;;9.50;99.90;;;;;;5028070;28;20026;-88
2022/01/04 05:12:07;;;;;;;13.50;11.02;;;9.50;99.90;;;;;;5017147;28;20093;-87
2022/01/04 05:14:33;;;;;;;17.17;11.25;;;9.40;99.90;;;;;;5038280;28;20029;-88
2022/01/04 05:16:59;;;;;;;17.50;11.80;;;9.40;99.90;;;;;;5039753;28;20010;-88
2022/01/04 05:19:27;;;;;;;14.40;10.23;;;9.40;99.90;;;;;;5039767;28;20061;-87
2022/01/04 05:21:53;;;;;;;15.73;10.85;;;9.40;99.90;;;;;;5039793;28;20017;-89
2022/01/04 05:24:19;;;;;;;19.23;11.52;;;9.40;99.90;;;;;;5006959;28;20009;-88
2022/01/04 05:26:44;;;;;;;18.35;11.02;;;9.40;99.90;;;;;;5021181;28;20033;-91
2022/01/04 05:29:10;;;;;;;14.60;10.73;;;9.40;99.90;;;;;;5033549;28;20044;-88
2022/01/04 05:31:36;;;;;;;15.10;10.27;;;9.40;99.90;;;;;;5033027;28;20466;-90
2022/01/04 05:34:01;;;;;;;15.88;10.77;;;9.40;99.90;;;;;;5044605;28;20474;-88
2022/01/04 05:36:27;;;;;;;16.70;10.75;;;9.40;99.90;;;;;;5009391;28;20112;-88
2022/01/04 05:38:53;;;;;;;17.20;11.55;;;9.50;99.90;;;;;;5009031;28;20064;-88
2022/01/04 05:41:18;;;;;;;17.17;10.57;;;9.50;99.90;;;;;;5009780;28;20033;-88
2022/01/04 05:43:47;;;;;;;16.30;11.65;;;9.50;99.90;;;;;;5008976;28;20026;-88
2022/01/04 05:46:15;;;;;;;19.48;11.40;;;9.40;99.90;;;;;;4992153;28;20132;-88
2022/01/04 05:48:41;;;;;;;17.35;10.85;;;9.40;99.90;;;;;;5028308;28;20040;-90
2022/01/04 05:51:06;;;;;;;16.77;10.77;;;9.40;99.90;;;;;;5004350;28;20029;-89
2022/01/04 05:53:33;;;;;;;18.35;12.85;;;9.40;99.90;;;;;;5006851;28;20040;-89
2022/01/04 05:55:59;;;;;;;16.83;11.50;;;9.40;99.90;;;;;;5007046;28;20013;-88
2022/01/04 05:58:27;;;;;;;17.45;11.52;;;9.40;99.90;;;;;;5040476;28;20041;-88
2022/01/04 06:00:53;;;;;;;17.63;11.50;;;9.50;99.90;;;;;;5023232;28;20034;-92
2022/01/04 06:03:22;;;;;;;15.75;11.40;;;9.40;99.90;;;;;;5006967;28;20056;-89
2022/01/04 06:05:48;;;;;;;15.60;10.82;;;9.40;99.90;;;;;;5056391;28;20041;-91
2022/01/04 06:08:13;;;;;;;18.25;11.32;;;9.40;99.90;;;;;;5022807;28;20030;-90
2022/01/04 06:10:41;;;;;;;18.13;11.40;;;9.40;99.90;;;;;;5023192;28;20016;-89
2022/01/04 06:15:32;;;;;;;15.07;10.90;;;9.40;99.90;;;;;;5037506;28;20057;-87
2022/01/04 06:17:58;;;;;;;15.60;10.65;;;9.40;99.90;;;;;;4993230;28;20030;-88
2022/01/04 06:20:24;;;;;;;18.52;12.90;;;9.40;99.90;;;;;;5012839;28;20048;-89
2022/01/04 06:22:54;;;;;;;15.60;11.32;;;9.40;99.90;;;;;;5001945;28;20093;-91
2022/01/04 06:25:21;;;;;;;20.17;12.77;;;9.30;99.90;;;;;;5017414;28;20107;-86
2022/01/04 06:27:50;;;;;;;16.67;11.05;;;9.30;99.90;;;;;;5023273;28;20458;-87
2022/01/04 06:30:17;;;;;;;18.05;11.98;;;9.30;99.90;;;;;;5024879;28;20068;-87
2022/01/04 06:32:44;;;;;;;16.38;11.60;;;9.30;99.90;;;;;;5024635;28;20109;-88
2022/01/04 06:35:10;;;;;;;19.33;13.23;;;9.30;99.90;;;;;;5023554;28;20021;-87
2022/01/04 06:37:36;;;;;;;18.98;11.75;;;9.30;99.90;;;;;;5020315;28;20018;-88
2022/01/04 06:40:03;;;;;;;18.20;12.02;;;9.30;99.90;;;;;;5017848;28;20579;-88
2022/01/04 06:42:28;;;;;;;18.95;12.60;;;9.30;99.90;;;;;;5026335;28;20049;-87
2022/01/04 06:44:54;;;;;;;17.80;12.73;;;9.30;99.90;;;;;;5029227;28;20449;-87
2022/01/04 06:47:20;;;;;;;19.20;12.25;;;9.30;99.90;;;;;;5008761;28;20500;-87
2022/01/04 06:49:46;;;;;;;20.25;12.23;;;9.30;99.90;;;;;;5024059;28;20017;-87
2022/01/04 06:52:18;;;;;;;22.48;12.07;;;9.30;99.90;;;;;;5034855;28;20029;-88
2022/01/04 06:54:45;;;;;;;18.73;13.07;;;9.30;99.90;;;;;;5035165;28;20100;-89
2022/01/04 06:57:11;;;;;;;20.13;13.57;;;9.30;99.90;;;;;;5029003;28;20098;-89
2022/01/04 06:59:42;;;;;;;21.20;12.70;;;9.30;99.90;;;;;;5022988;28;20014;-89
2022/01/04 07:02:08;;;;;;;21.05;13.55;;;9.30;99.90;;;;;;5024476;28;20048;-88
2022/01/04 07:04:34;;;;;;;20.23;13.52;;;9.30;99.90;;;;;;5021257;28;20030;-88
2022/01/04 07:07:00;;;;;;;18.90;13.20;;;9.30;99.90;;;;;;5020430;28;20172;-89
2022/01/04 07:09:25;;;;;;;22.40;13.98;;;9.30;99.90;;;;;;5020021;28;20022;-89
2022/01/04 07:11:54;;;;;;;20.52;14.35;;;9.30;99.90;;;;;;5003446;28;20060;-86
2022/01/04 07:14:20;;;;;;;18.08;13.18;;;9.30;99.90;;;;;;5020314;28;20021;-86
2022/01/04 07:16:48;;;;;;;22.85;14.27;;;9.30;99.90;;;;;;5037850;28;20124;-86
2022/01/04 07:19:15;;;;;;;20.00;13.60;;;9.40;99.90;;;;;;5037689;28;20030;-86
2022/01/04 07:21:41;;;;;;;21.08;13.68;;;9.30;99.90;;;;;;5038389;28;20021;-87
2022/01/04 07:24:09;;;;;;;21.67;14.35;;;9.30;99.90;;;;;;5037878;28;20095;-87
2022/01/04 07:26:37;;;;;;;22.08;14.45;;;9.30;99.90;;;;;;5039471;28;20025;-92
2022/01/04 07:29:12;;;;;;;20.50;14.85;;;9.30;99.90;;;;;;5002687;28;20029;-95
2022/01/04 07:31:37;;;;;;;20.88;14.88;;;9.30;99.90;;;;;;5024116;28;20033;-93
2022/01/04 07:34:03;;;;;;;21.10;14.75;;;9.30;99.90;;;;;;5040515;28;20021;-91
2022/01/04 07:36:31;;;;;;;23.67;14.50;;;9.30;99.90;;;;;;5021810;28;20359;-87
2022/01/04 07:38:57;;;;;;;23.45;13.88;;;9.30;99.90;;;;;;5018661;28;20028;-86
2022/01/04 07:41:22;;;;;;;20.60;14.73;;;9.20;99.90;;;;;;5018575;28;20029;-86
2022/01/04 07:43:49;;;;;;;23.27;14.90;;;9.20;99.90;;;;;;5020079;28;20025;-86
2022/01/04 07:46:15;;;;;;;24.33;15.20;;;9.20;99.90;;;;;;5019223;28;20053;-87
2022/01/04 07:48:49;;;;;;;24.15;15.77;;;9.20;99.90;;;;;;5020125;28;20514;-87
2022/01/04 07:51:14;;;;;;;22.30;15.10;;;9.20;99.90;;;;;;5004485;28;20041;-86
2022/01/04 07:53:40;;;;;;;26.33;16.05;;;9.20;99.90;;;;;;5020622;28;20478;-86
2022/01/04 07:56:06;;;;;;;22.05;14.20;;;9.20;99.90;;;;;;5020131;28;20079;-87
2022/01/04 07:58:32;;;;;;;21.20;15.02;;;9.30;99.90;;;;;;5019474;28;20029;-86
2022/01/04 08:00:58;;;;;;;24.45;15.38;;;9.20;99.90;;;;;;5019996;28;20026;-88
2022/01/04 08:03:31;;;;;;;26.17;15.52;;;9.30;99.90;;;;;;5003111;28;20036;-86
2022/01/04 08:05:57;;;;;;;24.10;16.00;;;9.20;99.90;;;;;;5019228;28;20040;-88
2022/01/04 08:08:22;;;;;;;25.05;14.90;;;9.20;99.90;;;;;;5019094;28;20390;-86
2022/01/04 08:10:50;;;;;;;25.27;14.98;;;9.20;99.90;;;;;;5019433;28;20120;-86
2022/01/04 08:13:15;;;;;;;23.10;15.10;;;9.30;99.90;;;;;;5019225;28;20044;-86
2022/01/04 08:15:47;;;;;;;25.08;15.07;;;9.30;99.90;;;;;;5019127;28;20457;-85
2022/01/04 08:18:13;;;;;;;24.33;16.48;;;9.20;99.90;;;;;;5018893;28;20033;-87
2022/01/04 08:20:38;;;;;;;24.08;16.38;;;9.20;99.90;;;;;;5036330;28;20485;-86
2022/01/04 08:23:04;;;;;;;27.60;15.60;;;9.20;99.90;;;;;;5001067;28;20030;-87
2022/01/04 08:25:30;;;;;;;24.40;15.68;;;9.20;99.90;;;;;;5018784;28;20032;-85
2022/01/04 08:27:57;;;;;;;26.23;17.48;;;9.30;99.90;;;;;;5019154;28;20053;-86
2022/01/04 08:30:22;;;;;;;33.03;18.27;;;9.20;99.90;;;;;;5004331;28;20029;-86
2022/01/04 08:32:50;;;;;;;26.98;16.58;;;9.30;99.90;;;;;;5020123;28;20029;-86
2022/01/04 08:35:16;;;;;;;25.83;16.38;;;9.20;99.90;;;;;;5019021;28;20420;-86
2022/01/04 08:37:41;;;;;;;32.10;19.95;;;9.30;99.90;;;;;;5003285;28;20120;-86
2022/01/04 08:40:08;;;;;;;32.65;19.50;;;9.30;99.90;;;;;;5002083;28;20034;-86
2022/01/04 08:42:35;;;;;;;33.72;19.88;;;9.30;99.90;;;;;;5004299;28;20478;-87
2022/01/04 08:45:01;;;;;;;32.90;20.25;;;9.30;99.90;;;;;;5018598;28;20025;-89
2022/01/04 08:47:27;;;;;;;33.08;20.65;;;9.30;99.90;;;;;;5018759;28;20053;-86
2022/01/04 08:49:53;;;;;;;32.80;20.30;;;9.30;99.90;;;;;;5019029;28;20041;-87
2022/01/04 08:52:22;;;;;;;38.22;21.75;;;9.30;99.90;;;;;;5018962;28;20020;-87
2022/01/04 08:54:48;;;;;;;33.65;19.90;;;9.30;99.90;;;;;;5019129;28;20063;-88
2022/01/04 08:57:14;;;;;;;32.47;20.70;;;9.30;99.90;;;;;;5002811;28;20034;-88
2022/01/04 08:59:40;;;;;;;31.75;19.98;;;9.30;99.90;;;;;;5018775;28;20029;-88
2022/01/04 09:02:05;;;;;;;32.03;19.70;;;9.30;99.90;;;;;;5018637;28;20035;-88
2022/01/04 09:04:31;;;;;;;28.10;19.63;;;9.30;99.90;;;;;;5001848;28;20064;-86
2022/01/04 09:06:57;;;;;;;30.52;19.33;;;9.30;99.90;;;;;;5001871;28;20121;-86
2022/01/04 09:09:22;;;;;;;28.08;18.90;;;9.40;99.90;;;;;;5018633;28;20289;-86
2022/01/04 09:11:48;;;;;;;28.50;17.98;;;9.30;99.90;;;;;;5002675;28;20040;-86
2022/01/04 09:14:41;;;;;;;31.23;19.33;;;9.30;99.90;;;;;;5018868;28;20108;-87
2022/01/04 09:19:53;;;;;;;32.42;18.98;;;9.30;99.90;;;;;;5021221;28;20047;-87
2022/01/04 09:22:18;;;;;;;29.65;18.27;;;9.40;99.90;;;;;;5002072;28;20495;-86
2022/01/04 09:24:47;;;;;;;29.00;18.20;;;9.40;99.90;;;;;;5019124;28;20029;-86
2022/01/04 09:27:12;;;;;;;28.65;18.55;;;9.40;99.90;;;;;;5018793;28;20049;-87
2022/01/04 09:29:38;;;;;;;29.90;18.20;;;9.40;99.90;;;;;;5018157;28;20034;-87
2022/01/04 09:32:05;;;;;;;30.38;18.02;;;9.40;99.90;;;;;;5002401;28;20147;-87
2022/01/04 09:34:31;;;;;;;28.63;17.20;;;9.50;99.90;;;;;;5037671;28;20036;-90
2022/01/04 09:36:57;;;;;;;33.22;19.50;;;9.40;99.90;;;;;;5003132;28;20022;-89
2022/01/04 09:39:24;;;;;;;30.33;18.90;;;9.40;99.90;;;;;;5018841;28;20121;-87
2022/01/04 09:41:52;;;;;;;30.17;19.45;;;9.40;99.90;;;;;;5003820;28;20088;-88
2022/01/04 09:44:18;;;;;;;30.27;19.02;;;9.40;99.90;;;;;;5036925;28;20029;-87
2022/01/04 09:46:43;;;;;;;34.88;20.38;;;9.40;99.90;;;;;;5003915;28;20045;-89
2022/01/04 09:49:11;;;;;;;31.25;18.60;;;9.30;99.90;;;;;;5012758;28;20026;-90
2022/01/04 09:51:40;;;;;;;28.10;16.83;;;9.30;99.90;;;;;;5025648;28;20371;-89
2022/01/04 09:54:07;;;;;;;13.00;8.82;;;9.30;99.90;;;;;;5021285;28;20026;-90
2022/01/04 09:56:33;;;;;;;10.93;6.35;;;9.20;99.90;;;;;;5019184;28;20095;-89
2022/01/04 09:58:58;;;;;;;9.40;5.32;;;9.20;99.90;;;;;;5003790;28;20458;-90
2022/01/04 10:01:35;;;;;;;10.05;5.13;;;9.10;99.90;;;;;;5002978;28;20029;-89
2022/01/04 10:04:01;;;;;;;8.00;4.82;;;9.00;99.90;;;;;;5019876;28;20030;-90
2022/01/04 10:06:27;;;;;;;8.93;5.30;;;9.00;99.90;;;;;;5019416;28;20061;-89
2022/01/04 10:08:55;;;;;;;11.63;5.95;;;8.90;99.90;;;;;;5002865;28;20370;-89
2022/01/04 10:11:36;;;;;;;8.18;5.10;;;8.80;99.90;;;;;;5022085;28;20049;-89
2022/01/04 10:14:31;;;;;;;5.95;3.80;;;8.80;99.90;;;;;;5032699;28;20083;-88
2022/01/04 10:17:00;;;;;;;6.30;3.40;;;8.80;99.90;;;;;;5028517;28;20465;-90
2022/01/04 10:19:43;;;;;;;9.60;3.65;;;8.80;99.90;;;;;;5022067;28;20096;-89
2022/01/04 10:22:31;;;;;;;6.20;3.58;;;8.70;99.90;;;;;;5007363;28;20462;-88
2022/01/04 10:25:03;;;;;;;8.43;4.25;;;8.80;99.90;;;;;;5021359;28;20017;-89
2022/01/04 10:27:38;;;;;;;9.15;4.63;;;8.70;99.90;;;;;;5021359;28;20040;-89
2022/01/04 10:30:24;;;;;;;10.82;6.70;;;8.70;99.90;;;;;;5021412;28;20037;-87
2022/01/04 10:33:13;;;;;;;14.65;8.05;;;8.70;99.90;;;;;;5021679;28;20030;-87
2022/01/04 10:35:42;;;;;;;14.35;8.82;;;8.70;99.90;;;;;;5020913;28;20053;-88
2022/01/04 10:38:14;;;;;;;14.90;8.80;;;8.80;99.90;;;;;;5020755;28;20025;-90
2022/01/04 10:40:48;;;;;;;16.70;8.98;;;8.80;99.90;;;;;;5021135;28;20025;-88
2022/01/04 10:43:15;;;;;;;16.33;10.50;;;8.80;99.90;;;;;;5020905;28;20079;-89
2022/01/04 10:45:47;;;;;;;15.27;9.82;;;8.80;99.90;;;;;;5020948;28;20421;-88
2022/01/04 10:48:20;;;;;;;15.45;10.13;;;8.80;99.90;;;;;;5005505;28;20030;-88
2022/01/04 10:50:55;;;;;;;23.98;12.10;;;8.90;99.90;;;;;;5020921;28;20175;-88
2022/01/04 10:53:30;;;;;;;21.05;11.95;;;8.90;99.90;;;;;;5026244;28;20041;-89
2022/01/04 10:56:21;;;;;;;21.98;13.85;;;8.90;99.90;;;;;;5023401;28;20079;-89
2022/01/04 10:58:49;;;;;;;24.25;15.18;;;8.90;99.90;;;;;;5038568;28;20022;-89
2022/01/04 11:01:21;;;;;;;29.23;15.52;;;9.00;99.90;;;;;;5020451;28;20026;-89
2022/01/04 11:03:55;;;;;;;24.35;16.38;;;9.00;99.90;;;;;;5020850;28;20112;-88
2022/01/04 11:06:24;;;;;;;28.85;15.57;;;9.10;99.90;;;;;;5020405;28;20466;-89
2022/01/04 11:08:53;;;;;;;28.08;17.65;;;9.10;99.90;;;;;;5020374;28;20052;-89
2022/01/04 11:11:19;;;;;;;25.63;15.73;;;9.10;99.90;;;;;;5003458;28;20145;-89
2022/01/04 11:13:45;;;;;;;28.65;16.85;;;9.10;99.90;;;;;;5021094;28;20021;-88
2022/01/04 11:16:11;;;;;;;30.15;17.13;;;9.10;99.90;;;;;;5005460;28;20500;-88
2022/01/04 11:18:43;;;;;;;27.70;17.15;;;9.20;99.90;;;;;;5039248;28;20045;-89
2022/01/04 11:21:13;;;;;;;24.88;16.00;;;9.20;99.90;;;;;;5020748;28;20049;-89
2022/01/04 11:23:40;;;;;;;29.10;16.75;;;9.20;99.90;;;;;;5020719;28;20022;-88
2022/01/04 11:26:07;;;;;;;23.23;15.88;;;9.20;99.90;;;;;;5021192;28;20029;-88
2022/01/04 11:28:34;;;;;;;27.40;15.57;;;9.20;99.90;;;;;;5003724;28;20029;-89
2022/01/04 11:31:06;;;;;;;24.02;14.90;;;9.20;99.90;;;;;;5039718;28;20079;-87
2022/01/04 11:33:56;;;;;;;26.15;15.23;;;9.30;99.90;;;;;;5022309;28;20029;-89
2022/01/04 11:36:24;;;;;;;20.35;13.68;;;9.30;99.90;;;;;;5020835;28;20025;-89
2022/01/04 11:38:53;;;;;;;24.52;16.15;;;9.30;99.90;;;;;;5003856;28;20025;-88
2022/01/04 11:41:32;;;;;;;22.60;14.25;;;9.30;99.90;;;;;;5020647;28;20083;-90
2022/01/04 11:44:18;;;;;;;23.98;14.32;;;9.30;99.90;;;;;;5019938;28;20140;-89
2022/01/04 11:46:44;;;;;;;20.88;13.70;;;9.30;99.90;;;;;;5006021;28;20081;-90
2022/01/04 11:49:13;;;;;;;25.23;14.35;;;9.30;99.90;;;;;;5003792;28;20065;-89
2022/01/04 11:51:43;;;;;;;26.92;13.10;;;9.30;99.90;;;;;;5022118;28;20017;-91
2022/01/04 11:54:27;;;;;;;20.65;12.50;;;9.30;99.90;;;;;;5004619;28;20511;-91
2022/01/04 11:57:02;;;;;;;22.70;12.80;;;9.40;99.90;;;;;;5038454;28;20029;-91
2022/01/04 11:59:33;;;;;;;19.95;10.77;;;9.30;99.90;;;;;;5020021;28;20377;-91
2022/01/04 12:02:30;;;;;;;17.52;9.77;;;9.30;99.90;;;;;;5020017;28;20055;-91
2022/01/04 12:05:00;;;;;;;14.77;8.75;;;9.30;99.90;;;;;;5031094;28;20018;-92
2022/01/04 12:07:49;;;;;;;15.65;8.85;;;9.30;99.90;;;;;;5053742;28;20089;-91
2022/01/04 12:10:20;;;;;;;12.98;7.82;;;9.20;99.90;;;;;;5044962;28;20017;-91
2022/01/04 12:13:06;;;;;;;;;;;9.10;99.90;;;;;;5038622;28;20079;-91
2022/01/04 12:15:50;;;;;;;;;;;;;;;;;;;;;
2022/01/04 12:18:53;;;;;;;;;;;;;;;;;;;;;
2022/01/04 12:21:39;;;;;;;16.92;9.15;;;9.10;99.90;;;;;;5036425;28;20104;-91
2022/01/04 12:24:12;;;;;;;16.73;8.43;;;9.00;99.90;;;;;;5020533;28;20041;-92
2022/01/04 12:26:49;;;;;;;19.27;8.20;;;9.00;99.90;;;;;;5018534;28;20041;-91
2022/01/04 12:29:32;;;;;;;;;;;;;;;;;;;;;
2022/01/04 12:32:03;;;;;;;17.73;8.75;;;9.00;99.90;;;;;;5036431;28;20028;-93
2022/01/04 12:34:48;;;;;;;14.50;7.93;;;9.00;99.90;;;;;;5018875;28;20096;-93
2022/01/04 12:37:18;;;;;;;12.45;6.65;;;9.10;99.90;;;;;;5019163;28;20413;-93
2022/01/04 12:39:49;;;;;;;11.93;5.55;;;9.00;99.90;;;;;;5018813;28;20025;-91
2022/01/04 12:42:25;;;;;;;9.60;4.43;;;9.00;99.90;;;;;;5024495;28;20031;-92
2022/01/04 12:45:04;;;;;;;9.13;3.67;;;9.00;99.90;;;;;;5034326;28;20317;-95
2022/01/04 12:50:36;;;;;;;9.63;3.92;;;8.90;99.90;;;;;;5028559;28;20030;-94
2022/01/04 12:53:05;;;;;;;8.02;3.08;;;8.90;99.90;;;;;;5021682;28;20104;-95
2022/01/04 12:55:34;;;;;;;7.65;3.47;;;8.90;99.90;;;;;;5020835;28;20029;-96
2022/01/04 12:58:00;;;;;;;10.25;4.32;;;8.80;99.90;;;;;;5038897;28;20079;-95
2022/01/04 13:00:35;;;;;;;11.65;4.70;;;8.90;99.90;;;;;;5003390;28;20029;-93
2022/01/04 13:03:06;;;;;;;10.43;3.90;;;8.90;99.90;;;;;;5040577;28;20156;-92
2022/01/04 13:05:42;;;;;;;;;;;;;;;;;;;;;